sensor_id;sensor_type;location;lat;lon;timestamp;P1;durP1;ratioP1;P2;durP2;ratioP2
29984;SDS011;17387;42.690;23.328;2022-10-01T00:00:24;24.23;;;11.30;;
29984;SDS011;17387;42.690;23.328;2022-10-01T00:02:53;18.45;;;11.27;;
29984;SDS011;17387;42.690;23.328;2022-10-01T00:05:18;23.63;;;11.48;;
29984;SDS011;17387;42.690;23.328;2022-10-01T00:07:45;17.55;;;11.57;;
29984;SDS011;17387;42.690;23.328;2022-10-01T00:10:11;24.23;;;12.07;;
29984;SDS011;17387;42.690;23.328;2022-10-01T00:12:42;21.10;;;11.68;;
29984;SDS011;17387;42.690;23.328;2022-10-01T00:15:10;21.70;;;10.93;;
29984;SDS011;17387;42.690;23.328;2022-10-01T00:17:39;22.80;;;12.65;;
29984;SDS011;17387;42.690;23.328;2022-10-01T00:20:05;20.58;;;11.93;;
29984;SDS011;17387;42.690;23.328;2022-10-01T00:22:32;25.13;;;12.30;;
29984;SDS011;17387;42.690;23.328;2022-10-01T00:25:01;19.55;;;11.75;;
29984;SDS011;17387;42.690;23.328;2022-10-01T00:27:28;22.35;;;11.90;;
29984;SDS011;17387;42.690;23.328;2022-10-01T00:29:53;19.33;;;11.88;;
29984;SDS011;17387;42.690;23.328;2022-10-01T00:32:20;20.00;;;12.23;;
29984;SDS011;17387;42.690;23.328;2022-10-01T00:34:45;21.10;;;12.50;;
29984;SDS011;17387;42.690;23.328;2022-10-01T00:37:12;24.98;;;11.30;;
29984;SDS011;17387;42.690;23.328;2022-10-01T00:39:38;18.95;;;12.63;;
29984;SDS011;17387;42.690;23.328;2022-10-01T00:42:11;20.10;;;11.63;;
29984;SDS011;17387;42.690;23.328;2022-10-01T00:44:50;19.73;;;12.95;;
29984;SDS011;17387;42.690;23.328;2022-10-01T00:49:47;18.83;;;11.50;;
29984;SDS011;17387;42.690;23.328;2022-10-01T00:52:20;24.15;;;12.30;;
29984;SDS011;17387;42.690;23.328;2022-10-01T00:54:52;21.70;;;11.55;;
29984;SDS011;17387;42.690;23.328;2022-10-01T00:57:22;20.73;;;10.88;;
29984;SDS011;17387;42.690;23.328;2022-10-01T00:59:54;19.45;;;10.93;;
29984;SDS011;17387;42.690;23.328;2022-10-01T01:02:23;23.05;;;12.13;;
29984;SDS011;17387;42.690;23.328;2022-10-01T01:04:49;23.95;;;14.18;;
29984;SDS011;17387;42.690;23.328;2022-10-01T01:07:15;20.05;;;11.80;;
29984;SDS011;17387;42.690;23.328;2022-10-01T01:09:45;19.15;;;11.40;;
29984;SDS011;17387;42.690;23.328;2022-10-01T01:17:13;18.85;;;11.00;;
29984;SDS011;17387;42.690;23.328;2022-10-01T01:22:22;18.85;;;11.10;;
29984;SDS011;17387;42.690;23.328;2022-10-01T01:25:01;18.27;;;11.07;;
29984;SDS011;17387;42.690;23.328;2022-10-01T01:30:08;19.00;;;11.93;;
29984;SDS011;17387;42.690;23.328;2022-10-01T01:32:45;22.10;;;12.18;;
29984;SDS011;17387;42.690;23.328;2022-10-01T01:38:12;19.02;;;12.23;;
29984;SDS011;17387;42.690;23.328;2022-10-01T01:40:43;19.48;;;11.30;;
29984;SDS011;17387;42.690;23.328;2022-10-01T01:43:14;20.88;;;10.82;;
29984;SDS011;17387;42.690;23.328;2022-10-01T01:45:44;21.08;;;10.85;;
29984;SDS011;17387;42.690;23.328;2022-10-01T01:48:14;18.88;;;11.43;;
29984;SDS011;17387;42.690;23.328;2022-10-01T01:50:46;21.35;;;11.55;;
29984;SDS011;17387;42.690;23.328;2022-10-01T01:53:16;27.48;;;11.75;;
29984;SDS011;17387;42.690;23.328;2022-10-01T01:55:44;20.58;;;11.55;;
29984;SDS011;17387;42.690;23.328;2022-10-01T01:58:14;17.98;;;11.45;;
29984;SDS011;17387;42.690;23.328;2022-10-01T02:00:41;20.02;;;11.90;;
29984;SDS011;17387;42.690;23.328;2022-10-01T02:03:06;25.52;;;13.07;;
29984;SDS011;17387;42.690;23.328;2022-10-01T02:05:42;19.38;;;12.15;;
29984;SDS011;17387;42.690;23.328;2022-10-01T02:08:34;17.58;;;12.27;;
29984;SDS011;17387;42.690;23.328;2022-10-01T02:11:18;25.83;;;13.30;;
29984;SDS011;17387;42.690;23.328;2022-10-01T02:16:50;18.30;;;12.60;;
29984;SDS011;17387;42.690;23.328;2022-10-01T02:21:59;23.23;;;12.63;;
29984;SDS011;17387;42.690;23.328;2022-10-01T02:27:28;23.17;;;12.73;;
29984;SDS011;17387;42.690;23.328;2022-10-01T02:29:58;19.02;;;12.80;;
29984;SDS011;17387;42.690;23.328;2022-10-01T02:32:26;17.25;;;12.20;;
29984;SDS011;17387;42.690;23.328;2022-10-01T02:34:54;19.75;;;12.38;;
29984;SDS011;17387;42.690;23.328;2022-10-01T02:37:22;19.70;;;12.73;;
29984;SDS011;17387;42.690;23.328;2022-10-01T02:39:51;19.98;;;12.20;;
29984;SDS011;17387;42.690;23.328;2022-10-01T02:42:19;21.25;;;12.25;;
29984;SDS011;17387;42.690;23.328;2022-10-01T02:44:50;18.88;;;11.60;;
29984;SDS011;17387;42.690;23.328;2022-10-01T02:47:29;23.38;;;12.05;;
29984;SDS011;17387;42.690;23.328;2022-10-01T02:50:00;19.77;;;11.18;;
29984;SDS011;17387;42.690;23.328;2022-10-01T02:52:33;19.65;;;11.70;;
29984;SDS011;17387;42.690;23.328;2022-10-01T02:55:16;20.48;;;12.35;;
29984;SDS011;17387;42.690;23.328;2022-10-01T02:57:44;22.75;;;11.82;;
29984;SDS011;17387;42.690;23.328;2022-10-01T03:00:11;18.10;;;11.32;;
29984;SDS011;17387;42.690;23.328;2022-10-01T03:02:38;23.05;;;12.20;;
29984;SDS011;17387;42.690;23.328;2022-10-01T03:05:04;19.90;;;10.60;;
29984;SDS011;17387;42.690;23.328;2022-10-01T03:07:31;17.25;;;10.88;;
29984;SDS011;17387;42.690;23.328;2022-10-01T03:10:01;16.88;;;10.52;;
29984;SDS011;17387;42.690;23.328;2022-10-01T03:12:29;17.73;;;10.43;;
29984;SDS011;17387;42.690;23.328;2022-10-01T03:14:54;14.98;;;10.07;;
29984;SDS011;17387;42.690;23.328;2022-10-01T03:17:20;14.38;;;10.40;;
29984;SDS011;17387;42.690;23.328;2022-10-01T03:19:45;14.93;;;10.52;;
29984;SDS011;17387;42.690;23.328;2022-10-01T03:22:12;17.45;;;10.73;;
29984;SDS011;17387;42.690;23.328;2022-10-01T03:24:39;15.15;;;10.20;;
29984;SDS011;17387;42.690;23.328;2022-10-01T03:27:04;16.92;;;9.70;;
29984;SDS011;17387;42.690;23.328;2022-10-01T03:29:30;16.52;;;9.50;;
29984;SDS011;17387;42.690;23.328;2022-10-01T03:31:56;13.23;;;8.65;;
29984;SDS011;17387;42.690;23.328;2022-10-01T03:34:21;15.00;;;8.90;;
29984;SDS011;17387;42.690;23.328;2022-10-01T03:36:47;12.90;;;8.75;;
29984;SDS011;17387;42.690;23.328;2022-10-01T03:39:14;16.45;;;9.38;;
29984;SDS011;17387;42.690;23.328;2022-10-01T03:41:39;16.55;;;9.07;;
29984;SDS011;17387;42.690;23.328;2022-10-01T03:44:05;13.90;;;9.52;;
29984;SDS011;17387;42.690;23.328;2022-10-01T03:46:33;10.93;;;8.90;;
29984;SDS011;17387;42.690;23.328;2022-10-01T03:48:58;14.30;;;9.35;;
29984;SDS011;17387;42.690;23.328;2022-10-01T03:51:25;15.82;;;9.57;;
29984;SDS011;17387;42.690;23.328;2022-10-01T03:53:52;12.43;;;9.40;;
29984;SDS011;17387;42.690;23.328;2022-10-01T03:56:17;12.13;;;9.20;;
29984;SDS011;17387;42.690;23.328;2022-10-01T03:58:42;18.48;;;9.48;;
29984;SDS011;17387;42.690;23.328;2022-10-01T04:01:08;13.20;;;9.38;;
29984;SDS011;17387;42.690;23.328;2022-10-01T04:03:33;13.13;;;9.48;;
29984;SDS011;17387;42.690;23.328;2022-10-01T04:05:59;12.95;;;9.90;;
29984;SDS011;17387;42.690;23.328;2022-10-01T04:08:24;15.05;;;10.25;;
29984;SDS011;17387;42.690;23.328;2022-10-01T04:10:49;15.38;;;9.65;;
29984;SDS011;17387;42.690;23.328;2022-10-01T04:13:15;14.27;;;10.52;;
29984;SDS011;17387;42.690;23.328;2022-10-01T04:15:41;18.95;;;10.80;;
29984;SDS011;17387;42.690;23.328;2022-10-01T04:18:07;16.83;;;10.73;;
29984;SDS011;17387;42.690;23.328;2022-10-01T04:20:34;16.40;;;10.18;;
29984;SDS011;17387;42.690;23.328;2022-10-01T04:23:01;18.35;;;11.10;;
29984;SDS011;17387;42.690;23.328;2022-10-01T04:25:27;15.57;;;10.52;;
29984;SDS011;17387;42.690;23.328;2022-10-01T04:28:00;16.20;;;11.18;;
29984;SDS011;17387;42.690;23.328;2022-10-01T04:30:34;18.65;;;11.30;;
29984;SDS011;17387;42.690;23.328;2022-10-01T04:33:01;17.45;;;10.75;;
29984;SDS011;17387;42.690;23.328;2022-10-01T04:35:27;18.10;;;10.52;;
29984;SDS011;17387;42.690;23.328;2022-10-01T04:38:00;12.88;;;10.73;;
29984;SDS011;17387;42.690;23.328;2022-10-01T04:40:28;16.73;;;10.60;;
29984;SDS011;17387;42.690;23.328;2022-10-01T04:42:54;14.35;;;10.63;;
29984;SDS011;17387;42.690;23.328;2022-10-01T04:45:22;15.35;;;9.90;;
29984;SDS011;17387;42.690;23.328;2022-10-01T04:47:49;18.73;;;10.65;;
29984;SDS011;17387;42.690;23.328;2022-10-01T04:50:15;15.73;;;10.48;;
29984;SDS011;17387;42.690;23.328;2022-10-01T04:52:42;17.80;;;10.15;;
29984;SDS011;17387;42.690;23.328;2022-10-01T04:55:08;17.75;;;9.98;;
29984;SDS011;17387;42.690;23.328;2022-10-01T04:57:34;18.90;;;10.13;;
29984;SDS011;17387;42.690;23.328;2022-10-01T05:00:01;16.40;;;9.60;;
29984;SDS011;17387;42.690;23.328;2022-10-01T05:02:28;13.68;;;10.30;;
29984;SDS011;17387;42.690;23.328;2022-10-01T05:04:54;16.15;;;9.75;;
29984;SDS011;17387;42.690;23.328;2022-10-01T05:07:20;15.90;;;10.00;;
29984;SDS011;17387;42.690;23.328;2022-10-01T05:09:46;17.27;;;10.77;;
29984;SDS011;17387;42.690;23.328;2022-10-01T05:12:12;19.67;;;9.73;;
29984;SDS011;17387;42.690;23.328;2022-10-01T05:14:38;19.33;;;10.73;;
29984;SDS011;17387;42.690;23.328;2022-10-01T05:17:03;17.90;;;10.85;;
29984;SDS011;17387;42.690;23.328;2022-10-01T05:19:31;22.27;;;11.40;;
29984;SDS011;17387;42.690;23.328;2022-10-01T05:21:57;20.10;;;12.32;;
29984;SDS011;17387;42.690;23.328;2022-10-01T05:24:23;21.08;;;12.35;;
29984;SDS011;17387;42.690;23.328;2022-10-01T05:26:49;18.98;;;11.70;;
29984;SDS011;17387;42.690;23.328;2022-10-01T05:29:14;21.52;;;12.27;;
29984;SDS011;17387;42.690;23.328;2022-10-01T05:31:40;23.48;;;12.68;;
29984;SDS011;17387;42.690;23.328;2022-10-01T05:34:08;21.30;;;12.25;;
29984;SDS011;17387;42.690;23.328;2022-10-01T05:36:34;18.90;;;11.38;;
29984;SDS011;17387;42.690;23.328;2022-10-01T05:39:00;19.83;;;11.45;;
29984;SDS011;17387;42.690;23.328;2022-10-01T05:41:25;21.70;;;11.30;;
29984;SDS011;17387;42.690;23.328;2022-10-01T05:43:51;20.80;;;11.48;;
29984;SDS011;17387;42.690;23.328;2022-10-01T05:46:17;15.38;;;10.90;;
29984;SDS011;17387;42.690;23.328;2022-10-01T05:48:43;13.38;;;10.60;;
29984;SDS011;17387;42.690;23.328;2022-10-01T05:51:09;23.70;;;12.77;;
29984;SDS011;17387;42.690;23.328;2022-10-01T05:53:35;20.67;;;12.10;;
29984;SDS011;17387;42.690;23.328;2022-10-01T05:56:04;16.13;;;11.55;;
29984;SDS011;17387;42.690;23.328;2022-10-01T05:58:31;17.58;;;11.38;;
29984;SDS011;17387;42.690;23.328;2022-10-01T06:00:58;22.00;;;11.50;;
29984;SDS011;17387;42.690;23.328;2022-10-01T06:03:23;20.23;;;11.95;;
29984;SDS011;17387;42.690;23.328;2022-10-01T06:05:52;20.02;;;11.48;;
29984;SDS011;17387;42.690;23.328;2022-10-01T06:08:18;14.25;;;10.93;;
29984;SDS011;17387;42.690;23.328;2022-10-01T06:10:43;18.35;;;12.07;;
29984;SDS011;17387;42.690;23.328;2022-10-01T06:13:09;17.25;;;11.98;;
29984;SDS011;17387;42.690;23.328;2022-10-01T06:15:36;18.88;;;12.27;;
29984;SDS011;17387;42.690;23.328;2022-10-01T06:18:03;25.30;;;12.38;;
29984;SDS011;17387;42.690;23.328;2022-10-01T06:20:32;21.45;;;11.68;;
29984;SDS011;17387;42.690;23.328;2022-10-01T06:22:58;20.80;;;12.43;;
29984;SDS011;17387;42.690;23.328;2022-10-01T06:25:24;21.83;;;12.88;;
29984;SDS011;17387;42.690;23.328;2022-10-01T06:27:53;23.45;;;13.60;;
29984;SDS011;17387;42.690;23.328;2022-10-01T06:30:22;22.23;;;12.70;;
29984;SDS011;17387;42.690;23.328;2022-10-01T06:32:52;19.55;;;14.05;;
29984;SDS011;17387;42.690;23.328;2022-10-01T06:35:23;17.73;;;12.45;;
29984;SDS011;17387;42.690;23.328;2022-10-01T06:37:48;30.90;;;15.90;;
29984;SDS011;17387;42.690;23.328;2022-10-01T06:40:14;20.35;;;12.25;;
29984;SDS011;17387;42.690;23.328;2022-10-01T06:42:39;19.67;;;12.70;;
29984;SDS011;17387;42.690;23.328;2022-10-01T06:45:11;20.30;;;12.80;;
29984;SDS011;17387;42.690;23.328;2022-10-01T06:47:36;22.35;;;12.50;;
29984;SDS011;17387;42.690;23.328;2022-10-01T06:50:02;24.75;;;13.50;;
29984;SDS011;17387;42.690;23.328;2022-10-01T06:52:27;22.73;;;12.90;;
29984;SDS011;17387;42.690;23.328;2022-10-01T06:55:11;16.80;;;12.38;;
29984;SDS011;17387;42.690;23.328;2022-10-01T06:57:37;20.85;;;12.18;;
29984;SDS011;17387;42.690;23.328;2022-10-01T07:00:02;17.70;;;12.20;;
29984;SDS011;17387;42.690;23.328;2022-10-01T07:02:28;20.48;;;12.02;;
29984;SDS011;17387;42.690;23.328;2022-10-01T07:04:57;19.15;;;11.93;;
29984;SDS011;17387;42.690;23.328;2022-10-01T07:07:33;18.38;;;11.68;;
29984;SDS011;17387;42.690;23.328;2022-10-01T07:10:01;17.92;;;11.73;;
29984;SDS011;17387;42.690;23.328;2022-10-01T07:12:31;19.15;;;11.88;;
29984;SDS011;17387;42.690;23.328;2022-10-01T07:14:58;20.85;;;11.10;;
29984;SDS011;17387;42.690;23.328;2022-10-01T07:17:23;17.80;;;11.45;;
29984;SDS011;17387;42.690;23.328;2022-10-01T07:19:49;18.15;;;10.00;;
29984;SDS011;17387;42.690;23.328;2022-10-01T07:22:14;21.00;;;10.32;;
29984;SDS011;17387;42.690;23.328;2022-10-01T07:24:42;19.20;;;9.60;;
29984;SDS011;17387;42.690;23.328;2022-10-01T07:27:07;13.10;;;7.65;;
29984;SDS011;17387;42.690;23.328;2022-10-01T07:29:32;12.63;;;7.60;;
29984;SDS011;17387;42.690;23.328;2022-10-01T07:31:59;19.73;;;7.63;;
29984;SDS011;17387;42.690;23.328;2022-10-01T07:34:25;17.90;;;7.88;;
29984;SDS011;17387;42.690;23.328;2022-10-01T07:36:52;11.38;;;7.50;;
29984;SDS011;17387;42.690;23.328;2022-10-01T07:39:18;16.65;;;8.35;;
29984;SDS011;17387;42.690;23.328;2022-10-01T07:41:44;12.68;;;8.43;;
29984;SDS011;17387;42.690;23.328;2022-10-01T07:44:09;16.25;;;8.68;;
29984;SDS011;17387;42.690;23.328;2022-10-01T07:46:38;13.55;;;9.13;;
29984;SDS011;17387;42.690;23.328;2022-10-01T07:49:03;13.13;;;8.23;;
29984;SDS011;17387;42.690;23.328;2022-10-01T07:51:29;15.00;;;7.40;;
29984;SDS011;17387;42.690;23.328;2022-10-01T07:53:55;19.25;;;9.57;;
29984;SDS011;17387;42.690;23.328;2022-10-01T07:56:21;14.82;;;8.80;;
29984;SDS011;17387;42.690;23.328;2022-10-01T07:58:46;14.98;;;7.85;;
29984;SDS011;17387;42.690;23.328;2022-10-01T08:01:12;14.75;;;9.43;;
29984;SDS011;17387;42.690;23.328;2022-10-01T08:03:37;11.35;;;7.10;;
29984;SDS011;17387;42.690;23.328;2022-10-01T08:06:03;16.52;;;7.85;;
29984;SDS011;17387;42.690;23.328;2022-10-01T08:08:31;36.97;;;22.73;;
29984;SDS011;17387;42.690;23.328;2022-10-01T08:10:56;18.17;;;8.82;;
29984;SDS011;17387;42.690;23.328;2022-10-01T08:13:22;17.13;;;9.10;;
29984;SDS011;17387;42.690;23.328;2022-10-01T08:15:50;12.05;;;7.22;;
29984;SDS011;17387;42.690;23.328;2022-10-01T08:18:19;20.85;;;9.40;;
29984;SDS011;17387;42.690;23.328;2022-10-01T08:20:46;9.60;;;7.38;;
29984;SDS011;17387;42.690;23.328;2022-10-01T08:23:12;19.90;;;8.55;;
29984;SDS011;17387;42.690;23.328;2022-10-01T08:25:39;29.52;;;14.65;;
29984;SDS011;17387;42.690;23.328;2022-10-01T08:28:06;29.25;;;12.55;;
29984;SDS011;17387;42.690;23.328;2022-10-01T08:30:32;13.80;;;8.50;;
29984;SDS011;17387;42.690;23.328;2022-10-01T08:33:00;18.20;;;7.82;;
29984;SDS011;17387;42.690;23.328;2022-10-01T08:35:26;16.50;;;7.43;;
29984;SDS011;17387;42.690;23.328;2022-10-01T08:37:52;16.77;;;9.13;;
29984;SDS011;17387;42.690;23.328;2022-10-01T08:40:20;12.90;;;8.55;;
29984;SDS011;17387;42.690;23.328;2022-10-01T08:42:58;12.85;;;6.97;;
29984;SDS011;17387;42.690;23.328;2022-10-01T08:48:06;16.23;;;8.48;;
29984;SDS011;17387;42.690;23.328;2022-10-01T08:50:46;20.63;;;11.32;;
29984;SDS011;17387;42.690;23.328;2022-10-01T08:53:20;11.27;;;7.45;;
29984;SDS011;17387;42.690;23.328;2022-10-01T08:55:53;22.20;;;12.73;;
29984;SDS011;17387;42.690;23.328;2022-10-01T08:58:22;15.75;;;8.50;;
29984;SDS011;17387;42.690;23.328;2022-10-01T09:00:52;16.80;;;8.55;;
29984;SDS011;17387;42.690;23.328;2022-10-01T09:03:19;12.00;;;8.48;;
29984;SDS011;17387;42.690;23.328;2022-10-01T09:11:10;20.98;;;9.38;;
29984;SDS011;17387;42.690;23.328;2022-10-01T09:19:34;16.17;;;8.70;;
29984;SDS011;17387;42.690;23.328;2022-10-01T09:22:11;20.60;;;10.82;;
29984;SDS011;17387;42.690;23.328;2022-10-01T09:24:56;17.67;;;8.93;;
29984;SDS011;17387;42.690;23.328;2022-10-01T09:27:31;13.15;;;8.82;;
29984;SDS011;17387;42.690;23.328;2022-10-01T09:29:58;13.07;;;9.35;;
29984;SDS011;17387;42.690;23.328;2022-10-01T09:32:29;21.17;;;10.05;;
29984;SDS011;17387;42.690;23.328;2022-10-01T09:35:01;16.98;;;8.48;;
29984;SDS011;17387;42.690;23.328;2022-10-01T09:37:40;15.48;;;10.10;;
29984;SDS011;17387;42.690;23.328;2022-10-01T09:43:13;20.67;;;14.48;;
29984;SDS011;17387;42.690;23.328;2022-10-01T09:45:39;19.98;;;11.07;;
29984;SDS011;17387;42.690;23.328;2022-10-01T09:50:56;30.27;;;16.60;;
29984;SDS011;17387;42.690;23.328;2022-10-01T09:53:31;55.15;;;34.42;;
29984;SDS011;17387;42.690;23.328;2022-10-01T09:56:02;24.60;;;14.68;;
29984;SDS011;17387;42.690;23.328;2022-10-01T09:58:34;29.67;;;17.52;;
29984;SDS011;17387;42.690;23.328;2022-10-01T10:01:03;20.65;;;12.10;;
29984;SDS011;17387;42.690;23.328;2022-10-01T10:03:51;26.50;;;15.32;;
29984;SDS011;17387;42.690;23.328;2022-10-01T10:06:20;17.98;;;10.90;;
29984;SDS011;17387;42.690;23.328;2022-10-01T10:08:51;16.27;;;10.15;;
29984;SDS011;17387;42.690;23.328;2022-10-01T10:11:22;20.13;;;12.35;;
29984;SDS011;17387;42.690;23.328;2022-10-01T10:13:52;19.20;;;9.98;;
29984;SDS011;17387;42.690;23.328;2022-10-01T10:18:53;20.15;;;10.48;;
29984;SDS011;17387;42.690;23.328;2022-10-01T10:21:32;18.25;;;11.30;;
29984;SDS011;17387;42.690;23.328;2022-10-01T10:24:00;18.95;;;13.18;;
29984;SDS011;17387;42.690;23.328;2022-10-01T10:26:29;17.67;;;12.15;;
29984;SDS011;17387;42.690;23.328;2022-10-01T10:28:58;20.33;;;13.35;;
29984;SDS011;17387;42.690;23.328;2022-10-01T10:31:26;25.67;;;17.10;;
29984;SDS011;17387;42.690;23.328;2022-10-01T10:36:37;36.40;;;20.85;;
29984;SDS011;17387;42.690;23.328;2022-10-01T10:39:04;20.80;;;12.63;;
29984;SDS011;17387;42.690;23.328;2022-10-01T10:41:41;33.90;;;17.60;;
29984;SDS011;17387;42.690;23.328;2022-10-01T10:44:11;24.25;;;14.80;;
29984;SDS011;17387;42.690;23.328;2022-10-01T10:46:40;23.17;;;13.27;;
29984;SDS011;17387;42.690;23.328;2022-10-01T10:49:14;22.48;;;14.38;;
29984;SDS011;17387;42.690;23.328;2022-10-01T10:54:16;19.33;;;13.57;;
29984;SDS011;17387;42.690;23.328;2022-10-01T10:56:50;25.48;;;16.48;;
29984;SDS011;17387;42.690;23.328;2022-10-01T10:59:19;28.35;;;14.80;;
29984;SDS011;17387;42.690;23.328;2022-10-01T11:01:45;22.45;;;14.73;;
29984;SDS011;17387;42.690;23.328;2022-10-01T11:04:20;25.75;;;17.40;;
29984;SDS011;17387;42.690;23.328;2022-10-01T11:06:53;34.63;;;17.60;;
29984;SDS011;17387;42.690;23.328;2022-10-01T11:09:20;20.02;;;13.63;;
29984;SDS011;17387;42.690;23.328;2022-10-01T11:15:09;31.60;;;20.15;;
29984;SDS011;17387;42.690;23.328;2022-10-01T11:23:33;25.00;;;13.13;;
29984;SDS011;17387;42.690;23.328;2022-10-01T11:34:53;15.48;;;10.60;;
29984;SDS011;17387;42.690;23.328;2022-10-01T11:37:35;19.27;;;10.90;;
29984;SDS011;17387;42.690;23.328;2022-10-01T11:40:13;23.40;;;12.50;;
29984;SDS011;17387;42.690;23.328;2022-10-01T11:42:54;30.27;;;17.33;;
29984;SDS011;17387;42.690;23.328;2022-10-01T11:45:29;29.23;;;17.55;;
29984;SDS011;17387;42.690;23.328;2022-10-01T11:48:10;26.38;;;16.33;;
29984;SDS011;17387;42.690;23.328;2022-10-01T11:50:44;17.95;;;12.95;;
29984;SDS011;17387;42.690;23.328;2022-10-01T11:55:51;53.78;;;32.22;;
29984;SDS011;17387;42.690;23.328;2022-10-01T11:58:50;30.50;;;18.52;;
29984;SDS011;17387;42.690;23.328;2022-10-01T12:01:39;27.10;;;17.25;;
29984;SDS011;17387;42.690;23.328;2022-10-01T12:09:48;16.15;;;9.85;;
29984;SDS011;17387;42.690;23.328;2022-10-01T12:15:43;24.90;;;12.63;;
29984;SDS011;17387;42.690;23.328;2022-10-01T12:18:18;15.65;;;9.60;;
29984;SDS011;17387;42.690;23.328;2022-10-01T12:20:48;24.13;;;14.48;;
29984;SDS011;17387;42.690;23.328;2022-10-01T12:23:21;22.02;;;12.05;;
29984;SDS011;17387;42.690;23.328;2022-10-01T12:36:33;11.10;;;5.40;;
29984;SDS011;17387;42.690;23.328;2022-10-01T12:47:07;12.43;;;5.15;;
29984;SDS011;17387;42.690;23.328;2022-10-01T12:56:00;10.27;;;5.75;;
29984;SDS011;17387;42.690;23.328;2022-10-01T12:58:44;11.77;;;4.82;;
29984;SDS011;17387;42.690;23.328;2022-10-01T13:06:47;23.15;;;11.48;;
29984;SDS011;17387;42.690;23.328;2022-10-01T13:14:31;10.27;;;5.45;;
29984;SDS011;17387;42.690;23.328;2022-10-01T13:17:01;8.98;;;5.20;;
29984;SDS011;17387;42.690;23.328;2022-10-01T13:19:51;13.63;;;6.10;;
29984;SDS011;17387;42.690;23.328;2022-10-01T13:27:37;11.63;;;5.70;;
29984;SDS011;17387;42.690;23.328;2022-10-01T13:30:21;12.55;;;5.85;;
29984;SDS011;17387;42.690;23.328;2022-10-01T13:38:38;11.35;;;5.63;;
29984;SDS011;17387;42.690;23.328;2022-10-01T13:41:23;10.98;;;5.95;;
29984;SDS011;17387;42.690;23.328;2022-10-01T13:43:56;12.25;;;5.70;;
29984;SDS011;17387;42.690;23.328;2022-10-01T13:46:28;9.77;;;5.88;;
29984;SDS011;17387;42.690;23.328;2022-10-01T13:48:55;12.43;;;5.65;;
29984;SDS011;17387;42.690;23.328;2022-10-01T13:51:35;9.80;;;4.90;;
29984;SDS011;17387;42.690;23.328;2022-10-01T13:54:02;12.25;;;5.30;;
29984;SDS011;17387;42.690;23.328;2022-10-01T13:56:32;12.40;;;5.72;;
29984;SDS011;17387;42.690;23.328;2022-10-01T13:59:01;11.98;;;4.93;;
29984;SDS011;17387;42.690;23.328;2022-10-01T14:01:29;12.18;;;5.38;;
29984;SDS011;17387;42.690;23.328;2022-10-01T14:06:55;14.02;;;6.60;;
29984;SDS011;17387;42.690;23.328;2022-10-01T14:09:26;18.55;;;6.65;;
29984;SDS011;17387;42.690;23.328;2022-10-01T14:12:14;10.48;;;5.43;;
29984;SDS011;17387;42.690;23.328;2022-10-01T14:15:13;26.10;;;12.65;;
29984;SDS011;17387;42.690;23.328;2022-10-01T14:18:06;12.77;;;5.28;;
29984;SDS011;17387;42.690;23.328;2022-10-01T14:20:38;9.05;;;4.88;;
29984;SDS011;17387;42.690;23.328;2022-10-01T14:23:28;6.00;;;3.90;;
29984;SDS011;17387;42.690;23.328;2022-10-01T14:26:06;7.88;;;4.07;;
29984;SDS011;17387;42.690;23.328;2022-10-01T14:28:58;9.13;;;4.40;;
29984;SDS011;17387;42.690;23.328;2022-10-01T14:36:51;11.77;;;5.95;;
29984;SDS011;17387;42.690;23.328;2022-10-01T14:39:20;11.70;;;6.70;;
29984;SDS011;17387;42.690;23.328;2022-10-01T14:41:55;12.82;;;7.00;;
29984;SDS011;17387;42.690;23.328;2022-10-01T14:46:50;14.35;;;7.15;;
29984;SDS011;17387;42.690;23.328;2022-10-01T14:49:18;11.40;;;6.78;;
29984;SDS011;17387;42.690;23.328;2022-10-01T14:51:50;11.15;;;6.45;;
29984;SDS011;17387;42.690;23.328;2022-10-01T14:54:19;10.27;;;6.50;;
29984;SDS011;17387;42.690;23.328;2022-10-01T14:56:45;11.52;;;6.38;;
29984;SDS011;17387;42.690;23.328;2022-10-01T14:59:17;12.02;;;6.90;;
29984;SDS011;17387;42.690;23.328;2022-10-01T15:01:55;14.70;;;8.13;;
29984;SDS011;17387;42.690;23.328;2022-10-01T15:04:22;14.77;;;8.20;;
29984;SDS011;17387;42.690;23.328;2022-10-01T15:06:47;14.80;;;9.57;;
29984;SDS011;17387;42.690;23.328;2022-10-01T15:09:13;11.15;;;6.55;;
29984;SDS011;17387;42.690;23.328;2022-10-01T15:11:42;12.20;;;5.90;;
29984;SDS011;17387;42.690;23.328;2022-10-01T15:14:13;11.07;;;6.45;;
29984;SDS011;17387;42.690;23.328;2022-10-01T15:19:08;14.63;;;6.97;;
29984;SDS011;17387;42.690;23.328;2022-10-01T15:21:48;10.88;;;5.70;;
29984;SDS011;17387;42.690;23.328;2022-10-01T15:26:47;13.30;;;6.13;;
29984;SDS011;17387;42.690;23.328;2022-10-01T15:29:14;14.73;;;7.05;;
29984;SDS011;17387;42.690;23.328;2022-10-01T15:31:40;10.35;;;6.07;;
29984;SDS011;17387;42.690;23.328;2022-10-01T15:34:10;11.15;;;5.82;;
29984;SDS011;17387;42.690;23.328;2022-10-01T15:36:38;11.07;;;6.22;;
29984;SDS011;17387;42.690;23.328;2022-10-01T15:39:17;11.68;;;5.15;;
29984;SDS011;17387;42.690;23.328;2022-10-01T15:41:49;8.63;;;5.00;;
29984;SDS011;17387;42.690;23.328;2022-10-01T15:49:59;9.95;;;6.38;;
29984;SDS011;17387;42.690;23.328;2022-10-01T15:55:11;12.52;;;5.00;;
29984;SDS011;17387;42.690;23.328;2022-10-01T15:57:42;9.80;;;4.82;;
29984;SDS011;17387;42.690;23.328;2022-10-01T16:00:27;10.55;;;4.95;;
29984;SDS011;17387;42.690;23.328;2022-10-01T16:02:56;8.48;;;4.78;;
29984;SDS011;17387;42.690;23.328;2022-10-01T16:05:24;12.35;;;6.97;;
29984;SDS011;17387;42.690;23.328;2022-10-01T16:07:53;16.25;;;9.88;;
29984;SDS011;17387;42.690;23.328;2022-10-01T16:10:31;15.18;;;8.07;;
29984;SDS011;17387;42.690;23.328;2022-10-01T16:16:05;36.38;;;21.80;;
29984;SDS011;17387;42.690;23.328;2022-10-01T16:18:31;22.92;;;12.75;;
29984;SDS011;17387;42.690;23.328;2022-10-01T16:20:58;30.27;;;17.52;;
29984;SDS011;17387;42.690;23.328;2022-10-01T16:23:30;28.63;;;18.33;;
29984;SDS011;17387;42.690;23.328;2022-10-01T16:25:55;57.67;;;29.00;;
29984;SDS011;17387;42.690;23.328;2022-10-01T16:28:24;23.33;;;13.25;;
29984;SDS011;17387;42.690;23.328;2022-10-01T16:30:53;25.20;;;13.40;;
29984;SDS011;17387;42.690;23.328;2022-10-01T16:33:19;21.83;;;13.90;;
29984;SDS011;17387;42.690;23.328;2022-10-01T16:35:46;30.23;;;17.67;;
29984;SDS011;17387;42.690;23.328;2022-10-01T16:38:11;28.98;;;16.48;;
29984;SDS011;17387;42.690;23.328;2022-10-01T16:40:41;27.73;;;15.98;;
29984;SDS011;17387;42.690;23.328;2022-10-01T16:43:15;32.25;;;17.88;;
29984;SDS011;17387;42.690;23.328;2022-10-01T16:45:43;26.45;;;17.92;;
29984;SDS011;17387;42.690;23.328;2022-10-01T16:48:16;33.13;;;18.00;;
29984;SDS011;17387;42.690;23.328;2022-10-01T16:50:44;25.58;;;14.55;;
29984;SDS011;17387;42.690;23.328;2022-10-01T16:53:14;41.15;;;25.15;;
29984;SDS011;17387;42.690;23.328;2022-10-01T16:55:40;43.47;;;23.42;;
29984;SDS011;17387;42.690;23.328;2022-10-01T16:58:07;40.17;;;21.55;;
29984;SDS011;17387;42.690;23.328;2022-10-01T17:00:33;45.95;;;23.30;;
29984;SDS011;17387;42.690;23.328;2022-10-01T17:03:01;39.20;;;22.50;;